Time;durP1;ratioP1;P1;durP2;ratioP2;P2;SDS_P1;SDS_P2;PMS_P1;PMS_P2;Temp;Humidity;BMP_temperature;BMP_pressure;BME280_temperature;BME280_humidity;BME280_pressure;Samples;Min_cycle;Max_cycle;Signal;HPM_P1;HPM_P2
2021/03/28 00:00:58;;;;;;;14.97;7.97;;;7.40;99.90;;;;;;5013288;28;20238;-91
2021/03/28 00:03:42;;;;;;;13.17;7.90;;;7.40;99.90;;;;;;5013078;28;20181;-92
2021/03/28 00:06:17;;;;;;;16.77;8.73;;;7.40;99.90;;;;;;5012899;28;20177;-92
2021/03/28 00:09:09;;;;;;;20.53;9.13;;;7.40;99.90;;;;;;5013517;28;20212;-92
2021/03/28 00:11:57;;;;;;;13.93;8.53;;;7.50;99.90;;;;;;5002322;28;20607;-91
2021/03/28 00:14:35;;;;;;;12.87;8.53;;;7.90;99.90;;;;;;5014191;28;20239;-91
2021/03/28 00:17:21;;;;;;;13.70;8.80;;;7.30;99.90;;;;;;5014960;28;20231;-91
2021/03/28 00:20:09;;;;;;;14.70;8.40;;;7.30;99.90;;;;;;5013276;28;20185;-91
2021/03/28 00:22:42;;;;;;;13.73;7.70;;;7.20;99.90;;;;;;5013483;28;20184;-91
2021/03/28 00:25:20;;;;;;;13.37;7.90;;;7.20;99.90;;;;;;5012606;28;20188;-91
2021/03/28 00:27:51;;;;;;;12.97;8.00;;;7.20;99.90;;;;;;5013185;28;20227;-91
2021/03/28 00:30:25;;;;;;;14.10;8.27;;;7.20;99.90;;;;;;5013316;28;20191;-91
2021/03/28 00:32:57;;;;;;;12.20;8.03;;;7.20;99.90;;;;;;5012976;28;20287;-91
2021/03/28 00:35:30;;;;;;;13.53;8.13;;;7.10;99.90;;;;;;5012609;28;20196;-91
2021/03/28 00:38:15;;;;;;;13.50;7.37;;;7.10;99.90;;;;;;5012810;28;20648;-91
2021/03/28 00:40:42;;;;;;;14.07;8.00;;;7.10;99.90;;;;;;5013399;28;20183;-91
2021/03/28 00:43:18;;;;;;;12.50;6.53;;;7.10;99.90;;;;;;5012805;28;20185;-92
2021/03/28 00:45:57;;;;;;;13.90;7.93;;;7.10;99.90;;;;;;5013923;28;20200;-91
2021/03/28 00:48:29;;;;;;;11.33;6.90;;;7.00;99.90;;;;;;5013464;28;20235;-91
2021/03/28 00:50:57;;;;;;;12.80;7.23;;;7.00;99.90;;;;;;5013821;28;20180;-90
2021/03/28 00:53:38;;;;;;;11.40;7.20;;;7.00;99.90;;;;;;5011939;28;20215;-90
2021/03/28 00:56:12;;;;;;;11.87;6.93;;;7.00;99.90;;;;;;5013635;28;20181;-90
2021/03/28 00:58:56;;;;;;;11.27;6.77;;;7.00;99.90;;;;;;5012311;28;20176;-91
2021/03/28 01:01:51;;;;;;;12.43;6.47;;;6.90;99.90;;;;;;5014059;28;20177;-92
2021/03/28 01:08:07;;;;;;;12.50;6.97;;;6.90;99.90;;;;;;5017570;28;20168;-91
2021/03/28 01:10:38;;;;;;;15.23;7.80;;;6.90;99.90;;;;;;5017740;28;20173;-91
2021/03/28 01:13:43;;;;;;;10.80;7.20;;;7.00;99.90;;;;;;5016575;28;20666;-91
2021/03/28 01:16:34;;;;;;;16.60;7.60;;;7.00;99.90;;;;;;5015540;28;20193;-91
2021/03/28 01:19:20;;;;;;;13.23;7.27;;;6.90;99.90;;;;;;4998977;28;20321;-91
2021/03/28 01:22:04;;;;;;;12.90;7.77;;;6.90;99.90;;;;;;4998591;28;20181;-91
2021/03/28 01:24:39;;;;;;;13.17;7.60;;;7.00;99.90;;;;;;4998413;28;20185;-92
2021/03/28 01:27:13;;;;;;;13.93;8.20;;;7.00;99.90;;;;;;4998678;28;20315;-91
2021/03/28 01:30:02;;;;;;;13.17;7.87;;;7.00;99.90;;;;;;4998220;28;20191;-91
2021/03/28 01:32:57;;;;;;;14.50;8.07;;;6.90;99.90;;;;;;4998181;28;20213;-91
2021/03/28 01:35:51;;;;;;;12.23;7.63;;;6.90;99.90;;;;;;4998265;28;20209;-91
2021/03/28 01:38:23;;;;;;;14.63;7.70;;;6.90;99.90;;;;;;5014865;28;20181;-91
2021/03/28 01:40:58;;;;;;;12.93;7.43;;;6.90;99.90;;;;;;5016051;28;20200;-90
2021/03/28 01:47:07;;;;;;;12.97;6.83;;;6.80;99.90;;;;;;5015514;28;20747;-91
2021/03/28 01:49:54;;;;;;;14.00;7.50;;;6.70;99.90;;;;;;4998703;28;20188;-90
2021/03/28 01:52:57;;;;;;;14.10;7.43;;;6.70;99.90;;;;;;5015082;28;20619;-90
2021/03/28 01:55:51;;;;;;;11.83;7.37;;;6.80;99.90;;;;;;5014712;28;20689;-90
2021/03/28 02:01:55;;;;;;;13.90;8.40;;;6.80;99.90;;;;;;5014693;28;20268;-91
2021/03/28 02:27:45;;;;;;;11.43;6.90;;;6.50;99.90;;;;;;4994131;28;20317;-91
2021/03/28 02:30:35;;;;;;;10.97;6.67;;;6.50;99.90;;;;;;4977622;28;20685;-88
2021/03/28 02:33:06;;;;;;;11.47;7.03;;;6.50;99.90;;;;;;4994602;28;20309;-90
2021/03/28 02:35:38;;;;;;;10.87;6.73;;;6.40;99.90;;;;;;4993900;28;20745;-91
2021/03/28 02:38:18;;;;;;;11.77;6.33;;;6.40;99.90;;;;;;4977800;28;20714;-91
2021/03/28 02:41:24;;;;;;;10.53;5.77;;;6.30;99.90;;;;;;4977316;28;20180;-91
2021/03/28 02:44:27;;;;;;;11.07;6.47;;;6.30;99.90;;;;;;4977406;28;20205;-89
2021/03/28 02:47:40;;;;;;;8.80;4.67;;;6.20;99.90;;;;;;4977037;28;20237;-90
2021/03/28 02:50:34;;;;;;;10.60;5.43;;;6.00;99.90;;;;;;4945485;28;20279;-89
2021/03/28 02:53:08;;;;;;;8.60;5.00;;;6.00;99.90;;;;;;4977500;28;20205;-89
2021/03/28 02:55:55;;;;;;;7.87;4.90;;;6.00;99.90;;;;;;5006608;28;20246;-88
2021/03/28 02:58:33;;;;;;;10.20;5.53;;;5.90;99.90;;;;;;5013483;28;20271;-90
2021/03/28 03:01:17;;;;;;;7.97;4.50;;;5.70;99.90;;;;;;5013546;28;20204;-88
2021/03/28 03:03:46;;;;;;;11.57;5.67;;;5.70;99.90;;;;;;5013639;28;20576;-92
2021/03/28 03:06:14;;;;;;;7.70;4.80;;;5.70;99.90;;;;;;5013962;28;20190;-92
2021/03/28 03:08:54;;;;;;;8.43;5.00;;;5.90;99.90;;;;;;5014090;28;20268;-92
2021/03/28 03:11:38;;;;;;;9.07;5.47;;;5.70;99.90;;;;;;5014247;28;20180;-92
2021/03/28 03:14:41;;;;;;;11.60;5.90;;;4.00;99.90;;;;;;5014278;28;20204;-93
2021/03/28 03:17:34;;;;;;;7.83;5.27;;;5.60;99.90;;;;;;5013810;28;20668;-95
2021/03/28 03:20:42;;;;;;;7.70;4.63;;;5.60;99.90;;;;;;5014271;28;20646;-90
2021/03/28 03:23:25;;;;;;;9.57;4.83;;;5.50;99.90;;;;;;4987593;28;20198;-92
2021/03/28 03:26:26;;;;;;;9.07;4.90;;;5.40;99.90;;;;;;5013741;28;20192;-93
2021/03/28 03:29:32;;;;;;;7.97;4.40;;;5.40;99.90;;;;;;5014275;28;20185;-92
2021/03/28 03:32:23;;;;;;;10.37;5.63;;;5.40;99.90;;;;;;5014996;28;20184;-93
2021/03/28 03:34:58;;;;;;;9.97;5.60;;;5.40;99.90;;;;;;5013848;28;20194;-93
2021/03/28 03:37:49;;;;;;;9.67;5.67;;;5.20;99.90;;;;;;5014718;28;20521;-93
2021/03/28 03:40:36;;;;;;;7.27;4.67;;;5.40;99.90;;;;;;5014330;28;20577;-93
2021/03/28 03:43:29;;;;;;;8.67;5.03;;;5.40;99.90;;;;;;5015375;28;20180;-94
2021/03/28 03:46:01;;;;;;;9.40;5.30;;;5.40;99.90;;;;;;5014110;28;20183;-92
2021/03/28 03:49:04;;;;;;;13.37;5.03;;;5.30;99.90;;;;;;5013341;28;20240;-93
2021/03/28 03:51:54;;;;;;;7.07;5.20;;;5.20;99.90;;;;;;5013768;28;20198;-93
2021/03/28 03:54:39;;;;;;;7.97;4.93;;;5.30;99.90;;;;;;5013249;28;20219;-92
2021/03/28 03:57:35;;;;;;;8.10;5.03;;;5.20;99.90;;;;;;5013406;28;20291;-92
2021/03/28 04:00:22;;;;;;;9.57;5.17;;;5.20;99.90;;;;;;5013784;28;20668;-93
2021/03/28 04:03:25;;;;;;;10.80;5.23;;;5.10;99.90;;;;;;5014316;28;20184;-94
2021/03/28 04:06:17;;;;;;;11.73;5.00;;;5.20;99.90;;;;;;5014995;28;20215;-94
2021/03/28 04:09:03;;;;;;;8.50;4.97;;;5.20;99.90;;;;;;5014381;28;20612;-93
2021/03/28 04:11:43;;;;;;;8.17;4.67;;;5.10;99.90;;;;;;5014101;28;20181;-93
2021/03/28 04:14:18;;;;;;;11.80;5.37;;;5.10;99.90;;;;;;5014293;28;20219;-94
2021/03/28 04:17:01;;;;;;;8.50;4.40;;;5.10;99.90;;;;;;5014370;28;20282;-93
2021/03/28 04:20:12;;;;;;;7.20;4.70;;;5.40;99.90;;;;;;5013981;28;20173;-93
2021/03/28 04:23:02;;;;;;;8.57;4.33;;;5.10;99.90;;;;;;4994437;28;20218;-94
2021/03/28 04:25:43;;;;;;;8.57;4.67;;;4.90;99.90;;;;;;5026947;28;20260;-94
2021/03/28 04:28:37;;;;;;;12.47;5.90;;;4.60;99.90;;;;;;5022766;28;20212;-93
2021/03/28 04:31:28;;;;;;;9.80;4.90;;;5.00;99.90;;;;;;5023063;28;20665;-94
2021/03/28 04:34:23;;;;;;;8.93;4.50;;;5.00;99.90;;;;;;4996015;28;20204;-94
2021/03/28 04:37:10;;;;;;;7.90;4.90;;;4.90;99.90;;;;;;4968666;28;20177;-95
2021/03/28 04:39:39;;;;;;;10.40;5.10;;;4.90;99.90;;;;;;5037718;28;20238;-91
2021/03/28 04:42:26;;;;;;;10.70;4.57;;;4.90;99.90;;;;;;5037752;28;20176;-93
2021/03/28 04:45:28;;;;;;;8.77;4.30;;;5.00;99.90;;;;;;5018041;28;20305;-94
2021/03/28 04:48:25;;;;;;;7.73;4.00;;;4.90;99.90;;;;;;5026472;28;20218;-93
2021/03/28 04:51:24;;;;;;;7.73;4.17;;;4.80;99.90;;;;;;5035925;28;20183;-93
2021/03/28 04:54:15;;;;;;;9.53;3.90;;;4.70;99.90;;;;;;5036864;28;20202;-96
2021/03/28 04:57:18;;;;;;;7.97;4.03;;;4.70;99.90;;;;;;5017516;28;20200;-94
2021/03/28 05:00:15;;;;;;;10.03;4.57;;;4.70;99.90;;;;;;5013691;28;20179;-92
2021/03/28 05:03:21;;;;;;;7.13;4.60;;;4.70;99.90;;;;;;5013063;28;20192;-94
2021/03/28 05:05:53;;;;;;;10.60;4.40;;;4.70;99.90;;;;;;5012972;28;20636;-94
2021/03/28 05:08:53;;;;;;;9.07;4.67;;;4.60;99.90;;;;;;5013289;28;20184;-94
2021/03/28 05:11:46;;;;;;;8.37;4.77;;;4.60;99.90;;;;;;5011998;28;20283;-92
2021/03/28 05:14:33;;;;;;;9.47;4.47;;;4.70;99.90;;;;;;5012607;28;20571;-92
2021/03/28 05:17:02;;;;;;;9.63;4.40;;;4.70;99.90;;;;;;5012012;28;20190;-94
2021/03/28 05:20:08;;;;;;;7.33;4.00;;;4.70;99.90;;;;;;5012657;28;20216;-93
2021/03/28 05:22:42;;;;;;;7.33;4.13;;;4.70;99.90;;;;;;5012475;28;20287;-93
2021/03/28 05:25:35;;;;;;;7.27;3.80;;;4.80;99.90;;;;;;5013507;28;20254;-93
2021/03/28 05:28:17;;;;;;;12.70;3.90;;;4.80;99.90;;;;;;5013521;28;20184;-92
2021/03/28 05:31:19;;;;;;;8.37;4.17;;;4.80;99.90;;;;;;5013323;28;20168;-92
2021/03/28 05:34:13;;;;;;;7.43;3.80;;;4.80;99.90;;;;;;5012427;28;20208;-93
2021/03/28 05:37:03;;;;;;;7.97;4.03;;;4.70;99.90;;;;;;5012418;28;20196;-92
2021/03/28 05:39:44;;;;;;;8.07;4.63;;;4.60;99.90;;;;;;5012457;28;20193;-91
2021/03/28 05:42:47;;;;;;;7.33;4.20;;;4.60;99.90;;;;;;5011119;28;20187;-93
2021/03/28 05:45:31;;;;;;;7.80;4.13;;;4.50;99.90;;;;;;5012184;28;20227;-93
2021/03/28 05:48:06;;;;;;;9.43;3.80;;;4.50;99.90;;;;;;5013158;28;20319;-91
2021/03/28 05:51:02;;;;;;;9.87;4.67;;;4.60;99.90;;;;;;5011819;28;20643;-90
2021/03/28 05:53:58;;;;;;;9.93;4.40;;;4.50;99.90;;;;;;5006640;28;20300;-93
2021/03/28 05:56:42;;;;;;;9.07;4.80;;;4.50;99.90;;;;;;5016494;28;20192;-92
2021/03/28 05:59:16;;;;;;;8.57;4.70;;;4.40;99.90;;;;;;5012342;28;20189;-92
2021/03/28 06:01:54;;;;;;;10.07;4.40;;;4.30;99.90;;;;;;5006265;28;20181;-92
2021/03/28 06:04:56;;;;;;;8.10;5.10;;;4.40;99.90;;;;;;5014344;28;20187;-91
2021/03/28 06:07:34;;;;;;;9.53;5.63;;;4.40;99.90;;;;;;5009000;28;20214;-93
2021/03/28 06:10:18;;;;;;;11.70;5.70;;;4.40;99.90;;;;;;5013164;28;20189;-93
2021/03/28 06:13:09;;;;;;;13.50;5.67;;;4.30;99.90;;;;;;5007193;28;20216;-95
2021/03/28 06:15:45;;;;;;;14.90;6.73;;;4.30;99.90;;;;;;5012289;28;20229;-94
2021/03/28 06:18:50;;;;;;;12.63;7.27;;;4.30;99.90;;;;;;5009795;28;20185;-89
2021/03/28 06:21:37;;;;;;;13.57;7.23;;;4.30;99.90;;;;;;5010683;28;20197;-89
2021/03/28 06:24:58;;;;;;;12.20;8.30;;;4.20;99.90;;;;;;5013080;28;20190;-91
2021/03/28 06:27:52;;;;;;;16.40;8.67;;;4.30;99.90;;;;;;4948278;28;20198;-89
2021/03/28 06:30:51;;;;;;;12.13;8.23;;;4.20;99.90;;;;;;5010108;28;20205;-87
2021/03/28 06:33:42;;;;;;;17.03;7.90;;;4.20;99.90;;;;;;5014454;28;20250;-89
2021/03/28 06:36:16;;;;;;;15.63;9.23;;;4.10;99.90;;;;;;5008600;28;20237;-91
2021/03/28 06:38:57;;;;;;;11.83;6.63;;;4.10;99.90;;;;;;5014534;28;20180;-88
2021/03/28 06:41:47;;;;;;;15.60;6.87;;;4.00;99.90;;;;;;5011347;28;20199;-87
2021/03/28 06:45:06;;;;;;;15.60;9.37;;;4.00;99.90;;;;;;5003838;28;20559;-88
2021/03/28 06:47:44;;;;;;;19.50;10.93;;;4.00;99.90;;;;;;4971788;28;20256;-88
2021/03/28 06:50:34;;;;;;;16.87;8.83;;;4.00;99.90;;;;;;4952577;28;20620;-89
2021/03/28 06:53:28;;;;;;;15.07;9.40;;;4.00;99.90;;;;;;4986576;28;20305;-89
2021/03/28 06:56:34;;;;;;;16.73;10.33;;;4.00;99.90;;;;;;5038484;28;20184;-89
2021/03/28 06:59:43;;;;;;;24.03;10.03;;;3.90;99.90;;;;;;4997627;28;20203;-89
2021/03/28 07:02:20;;;;;;;17.37;10.90;;;4.00;99.90;;;;;;5036982;28;20651;-89
2021/03/28 07:05:23;;;;;;;18.83;10.13;;;3.90;99.90;;;;;;5035903;28;20207;-88
2021/03/28 07:08:14;;;;;;;17.37;9.53;;;3.90;99.90;;;;;;5016328;28;20186;-89
2021/03/28 07:10:44;;;;;;;20.60;11.37;;;3.90;99.90;;;;;;5012745;28;20231;-90
2021/03/28 07:13:16;;;;;;;17.23;10.33;;;4.00;99.90;;;;;;5026413;28;20204;-91
2021/03/28 07:16:06;;;;;;;17.77;9.57;;;4.00;99.90;;;;;;5024019;28;20709;-89
2021/03/28 07:18:42;;;;;;;21.10;10.27;;;4.10;99.90;;;;;;5030800;28;20254;-89
2021/03/28 07:21:43;;;;;;;20.37;10.33;;;4.50;99.90;;;;;;5021770;28;21140;-90
2021/03/28 07:24:23;;;;;;;20.37;9.77;;;4.10;99.90;;;;;;5003094;28;20231;-90
2021/03/28 07:26:49;;;;;;;18.33;9.93;;;4.20;99.90;;;;;;5016718;28;20190;-91
2021/03/28 07:29:20;;;;;;;15.70;9.40;;;4.30;99.90;;;;;;5027734;28;20368;-91
2021/03/28 07:32:17;;;;;;;19.33;9.43;;;4.50;99.90;;;;;;5042059;28;20189;-91
2021/03/28 07:35:13;;;;;;;12.63;8.03;;;4.50;99.90;;;;;;5033423;28;20199;-92
2021/03/28 07:38:00;;;;;;;13.20;7.50;;;4.50;99.90;;;;;;5035161;28;20179;-92
2021/03/28 07:40:56;;;;;;;15.03;8.33;;;4.50;99.90;;;;;;5033943;28;20187;-91
2021/03/28 07:43:43;;;;;;;16.63;9.23;;;4.50;99.90;;;;;;5020769;28;20195;-92
2021/03/28 07:46:27;;;;;;;12.87;6.60;;;4.50;99.90;;;;;;5028829;28;20197;-94
2021/03/28 07:49:17;;;;;;;15.93;8.60;;;4.50;99.90;;;;;;5021965;28;20199;-91
2021/03/28 07:52:26;;;;;;;15.70;8.53;;;4.60;99.90;;;;;;5025462;28;20550;-87
2021/03/28 07:55:20;;;;;;;13.07;7.50;;;4.70;99.90;;;;;;5015285;28;21644;-91
2021/03/28 07:58:29;;;;;;;15.77;8.87;;;4.80;99.90;;;;;;5038974;28;20211;-91
2021/03/28 08:01:17;;;;;;;16.40;9.47;;;4.80;99.90;;;;;;5017387;28;20186;-91
2021/03/28 08:03:45;;;;;;;15.30;8.90;;;4.70;99.90;;;;;;5027954;28;20184;-91
2021/03/28 08:06:39;;;;;;;21.17;10.37;;;4.80;99.90;;;;;;5012708;28;20196;-89
2021/03/28 08:09:41;;;;;;;14.80;8.47;;;4.90;99.90;;;;;;5031386;28;20185;-89
2021/03/28 08:12:51;;;;;;;17.00;8.47;;;5.00;99.90;;;;;;5024250;28;20185;-87
2021/03/28 08:15:29;;;;;;;13.10;8.97;;;5.10;99.90;;;;;;5002245;28;20255;-88
2021/03/28 08:18:13;;;;;;;17.53;9.97;;;5.30;99.90;;;;;;5021904;28;20228;-88
2021/03/28 08:21:27;;;;;;;20.03;10.10;;;5.20;99.90;;;;;;4999600;28;20564;-89
2021/03/28 08:24:11;;;;;;;13.53;8.30;;;5.20;99.90;;;;;;4956419;28;20207;-86
2021/03/28 08:26:56;;;;;;;19.67;9.03;;;5.30;99.90;;;;;;5015897;28;20192;-85
2021/03/28 08:29:43;;;;;;;14.90;7.87;;;5.50;99.90;;;;;;5013993;28;20183;-87
2021/03/28 08:32:34;;;;;;;13.17;7.33;;;5.50;99.90;;;;;;5011284;28;20184;-86
2021/03/28 08:35:08;;;;;;;14.33;6.73;;;5.50;99.90;;;;;;5013351;28;20282;-86
2021/03/28 08:38:22;;;;;;;10.50;6.13;;;5.60;99.90;;;;;;5033733;28;20193;-88
2021/03/28 08:41:29;;;;;;;11.00;6.67;;;5.50;99.90;;;;;;5002993;28;20191;-86
2021/03/28 08:44:50;;;;;;;12.83;6.70;;;5.40;99.90;;;;;;4923196;29;20193;-88
2021/03/28 08:47:28;;;;;;;11.70;6.77;;;5.50;99.90;;;;;;4896809;29;20243;-88
2021/03/28 08:50:14;;;;;;;10.63;6.17;;;5.50;99.90;;;;;;4964549;28;20659;-88
2021/03/28 08:53:03;;;;;;;11.50;5.90;;;5.50;99.90;;;;;;5003140;28;20207;-90
2021/03/28 08:56:07;;;;;;;12.67;6.77;;;5.50;99.90;;;;;;4998934;28;20287;-89
2021/03/28 08:58:46;;;;;;;17.00;7.20;;;5.60;99.90;;;;;;4994990;28;20596;-87
2021/03/28 09:01:14;;;;;;;16.50;7.13;;;5.70;99.90;;;;;;4996271;28;20176;-87
2021/03/28 09:03:39;;;;;;;12.13;8.23;;;5.90;99.90;;;;;;5012464;28;20315;-88
2021/03/28 09:06:15;;;;;;;11.97;7.00;;;6.10;99.90;;;;;;5011980;28;20866;-88
2021/03/28 09:09:05;;;;;;;13.23;7.07;;;6.30;99.90;;;;;;5012921;28;20191;-89
2021/03/28 09:11:55;;;;;;;12.47;7.97;;;6.20;99.90;;;;;;5010324;28;20266;-86
2021/03/28 09:14:33;;;;;;;11.17;7.60;;;6.10;99.90;;;;;;4996816;28;20933;-86
2021/03/28 09:17:06;;;;;;;12.83;8.17;;;6.10;99.90;;;;;;5016252;28;20213;-88
2021/03/28 09:20:08;;;;;;;12.03;7.87;;;6.10;99.90;;;;;;5013674;28;20217;-89
2021/03/28 09:22:44;;;;;;;15.23;7.33;;;6.30;99.90;;;;;;5003349;28;20185;-93
2021/03/28 09:25:53;;;;;;;17.30;7.63;;;4.90;99.90;;;;;;5004455;28;20188;-90
2021/03/28 09:28:36;;;;;;;10.67;6.90;;;6.40;99.90;;;;;;4896818;29;20233;-89
2021/03/28 09:31:41;;;;;;;12.00;6.60;;;6.70;99.90;;;;;;4994892;28;20705;-87
2021/03/28 09:34:36;;;;;;;9.10;5.50;;;6.90;99.90;;;;;;5012591;28;20213;-87
2021/03/28 09:37:01;;;;;;;11.80;6.93;;;6.80;99.90;;;;;;5004102;28;20271;-86
2021/03/28 09:39:47;;;;;;;15.00;6.37;;;6.90;99.90;;;;;;5003876;28;20616;-87
2021/03/28 09:43:04;;;;;;;11.07;6.80;;;6.90;99.90;;;;;;5014630;28;20179;-86
2021/03/28 09:46:11;;;;;;;11.60;6.30;;;6.90;99.90;;;;;;4984918;28;20288;-86
2021/03/28 09:49:02;;;;;;;9.30;5.37;;;6.80;99.90;;;;;;5019839;28;20719;-89
2021/03/28 09:51:46;;;;;;;9.27;6.23;;;7.00;99.90;;;;;;5018501;28;20189;-87
2021/03/28 09:54:33;;;;;;;17.40;6.80;;;6.80;99.90;;;;;;5017423;28;20715;-86
2021/03/28 09:57:20;;;;;;;15.93;7.47;;;6.70;99.90;;;;;;5017106;28;20205;-87
2021/03/28 10:00:04;;;;;;;11.03;6.63;;;6.50;99.90;;;;;;5022277;28;20180;-88
2021/03/28 10:02:39;;;;;;;10.90;7.13;;;6.20;99.90;;;;;;5017806;28;20190;-87
2021/03/28 10:05:19;;;;;;;12.57;6.70;;;6.40;99.90;;;;;;5009729;28;20278;-86
2021/03/28 10:07:58;;;;;;;18.47;8.17;;;6.40;99.90;;;;;;5016176;28;20187;-87
2021/03/28 10:10:37;;;;;;;25.47;8.03;;;6.50;99.90;;;;;;5016110;28;20176;-86
2021/03/28 10:13:05;;;;;;;16.33;8.07;;;6.60;99.90;;;;;;5035061;28;20291;-86
2021/03/28 10:15:40;;;;;;;14.17;7.53;;;6.70;99.90;;;;;;5026515;28;20192;-86
2021/03/28 10:18:29;;;;;;;17.23;7.97;;;6.70;99.90;;;;;;5000900;28;20188;-87
2021/03/28 10:20:54;;;;;;;14.53;8.00;;;6.70;99.90;;;;;;5015418;28;20181;-88
2021/03/28 10:23:31;;;;;;;13.73;7.20;;;6.60;99.90;;;;;;5016015;28;20195;-87
2021/03/28 10:26:22;;;;;;;13.57;7.60;;;6.60;99.90;;;;;;5019529;28;20180;-86
2021/03/28 10:29:28;;;;;;;13.23;7.33;;;6.60;99.90;;;;;;5031229;28;20188;-84
2021/03/28 10:32:12;;;;;;;11.20;6.33;;;6.80;99.90;;;;;;5001378;28;20196;-84
2021/03/28 10:35:08;;;;;;;11.37;6.57;;;7.00;99.90;;;;;;5009086;28;20215;-87
2021/03/28 10:38:11;;;;;;;15.80;7.00;;;7.20;99.90;;;;;;5022250;28;20815;-90
2021/03/28 10:40:53;;;;;;;10.33;6.33;;;7.20;99.90;;;;;;5038220;28;20179;-90
2021/03/28 10:43:33;;;;;;;10.40;6.67;;;7.30;99.90;;;;;;5035651;28;20189;-86
2021/03/28 10:46:28;;;;;;;10.77;6.30;;;7.50;99.90;;;;;;5027633;28;20271;-87
2021/03/28 10:49:18;;;;;;;14.47;6.57;;;7.60;99.90;;;;;;5018542;28;20200;-89
2021/03/28 10:52:28;;;;;;;10.43;6.00;;;8.00;99.90;;;;;;5038924;28;20243;-89
2021/03/28 10:55:27;;;;;;;12.57;6.17;;;10.00;99.90;;;;;;5026986;28;20197;-90
2021/03/28 10:58:11;;;;;;;10.97;5.80;;;8.00;99.90;;;;;;4987354;28;20665;-91
2021/03/28 11:01:08;;;;;;;11.70;6.60;;;7.90;99.90;;;;;;5042557;28;20267;-94
2021/03/28 11:04:10;;;;;;;13.33;6.63;;;7.80;99.90;;;;;;5033956;28;20207;-90
2021/03/28 11:06:49;;;;;;;14.80;6.17;;;8.00;99.90;;;;;;5019733;28;20188;-91
2021/03/28 11:09:30;;;;;;;12.57;6.00;;;7.70;99.90;;;;;;5042216;28;20657;-92
2021/03/28 11:12:11;;;;;;;11.33;6.53;;;7.80;99.90;;;;;;5029829;28;20168;-91
2021/03/28 11:15:14;;;;;;;7.80;5.07;;;7.60;99.90;;;;;;5024723;28;20238;-91
2021/03/28 11:18:17;;;;;;;9.57;6.23;;;7.70;99.90;;;;;;5020125;28;20192;-92
2021/03/28 11:20:53;;;;;;;9.10;5.70;;;8.20;99.90;;;;;;5012024;28;20180;-94
2021/03/28 11:23:56;;;;;;;12.57;6.90;;;7.80;99.30;;;;;;5021959;28;20188;-89
2021/03/28 11:26:34;;;;;;;9.63;5.70;;;7.70;99.60;;;;;;5017908;28;20190;-89
2021/03/28 11:29:03;;;;;;;9.80;5.73;;;7.70;99.70;;;;;;5031780;28;20185;-88
2021/03/28 11:31:36;;;;;;;11.47;5.67;;;7.80;97.50;;;;;;5031644;28;20184;-88
2021/03/28 11:34:35;;;;;;;8.17;5.10;;;7.80;95.40;;;;;;5013712;28;20338;-88
2021/03/28 11:37:06;;;;;;;6.93;4.43;;;7.90;94.20;;;;;;5033352;28;20188;-88
2021/03/28 11:39:35;;;;;;;14.47;5.70;;;8.00;94.10;;;;;;5013108;28;20551;-91
2021/03/28 11:42:12;;;;;;;7.83;5.00;;;8.10;93.40;;;;;;5021378;28;20229;-92
2021/03/28 11:44:59;;;;;;;10.53;5.40;;;8.20;93.30;;;;;;5014377;28;20604;-87
2021/03/28 11:47:30;;;;;;;10.43;6.07;;;8.30;90.70;;;;;;5016718;28;20248;-95
2021/03/28 11:50:07;;;;;;;15.07;6.20;;;8.20;92.50;;;;;;5040296;28;20184;-88
2021/03/28 11:53:03;;;;;;;11.47;5.57;;;8.10;92.80;;;;;;5009377;28;20656;-87
2021/03/28 11:55:32;;;;;;;8.23;5.07;;;8.20;92.60;;;;;;5031243;28;20208;-88
2021/03/28 11:58:13;;;;;;;10.13;5.60;;;8.20;91.90;;;;;;5030114;28;20687;-87
2021/03/28 12:00:44;;;;;;;9.53;6.03;;;8.00;92.70;;;;;;5010516;28;20188;-88
2021/03/28 12:03:19;;;;;;;6.30;5.13;;;7.80;93.90;;;;;;5016005;28;20200;-87
2021/03/28 12:06:29;;;;;;;11.77;5.80;;;7.80;94.10;;;;;;5032911;28;20266;-87
2021/03/28 12:09:01;;;;;;;8.57;6.13;;;7.80;93.50;;;;;;5033421;28;20188;-87
2021/03/28 12:11:45;;;;;;;10.17;6.17;;;7.80;94.40;;;;;;5024759;28;20179;-88
2021/03/28 12:14:26;;;;;;;10.37;7.00;;;7.80;95.70;;;;;;5029154;28;20717;-89
2021/03/28 12:17:10;;;;;;;8.50;4.90;;;7.90;94.90;;;;;;5027786;28;20367;-89
2021/03/28 12:19:52;;;;;;;11.30;6.00;;;8.00;93.90;;;;;;5011906;28;20196;-90
2021/03/28 12:22:20;;;;;;;8.83;5.90;;;8.10;94.60;;;;;;5016164;28;20181;-89
2021/03/28 12:25:03;;;;;;;8.63;5.57;;;8.20;94.00;;;;;;5009698;28;20197;-89
2021/03/28 12:27:40;;;;;;;9.97;6.33;;;8.20;94.30;;;;;;5018373;28;20208;-91
2021/03/28 12:30:28;;;;;;;11.90;6.10;;;8.20;93.20;;;;;;5032663;28;20660;-90
2021/03/28 12:33:08;;;;;;;8.50;5.27;;;8.10;93.40;;;;;;5001165;28;20208;-86
2021/03/28 12:35:54;;;;;;;8.57;5.57;;;8.10;92.50;;;;;;5013012;28;20231;-85
2021/03/28 12:38:28;;;;;;;14.47;6.33;;;8.10;92.60;;;;;;5008340;28;20235;-86
2021/03/28 12:41:11;;;;;;;11.07;5.80;;;8.20;92.60;;;;;;5027532;28;20188;-86
2021/03/28 12:43:42;;;;;;;10.47;5.40;;;8.10;91.80;;;;;;5039566;28;20561;-86
2021/03/28 12:46:26;;;;;;;10.83;6.00;;;8.20;91.50;;;;;;5040658;28;20180;-84
2021/03/28 12:49:11;;;;;;;14.50;5.80;;;8.20;91.10;;;;;;5013828;28;20300;-87
2021/03/28 12:51:44;;;;;;;9.63;5.90;;;8.20;91.00;;;;;;5011203;28;20190;-85
2021/03/28 12:54:57;;;;;;;11.40;5.40;;;8.30;91.20;;;;;;5023192;28;20204;-86
2021/03/28 12:57:32;;;;;;;10.17;4.33;;;8.40;90.60;;;;;;4978257;28;20223;-88
2021/03/28 13:00:26;;;;;;;8.70;5.07;;;8.60;88.00;;;;;;5038342;28;20259;-89
2021/03/28 13:02:55;;;;;;;9.57;3.97;;;8.70;87.50;;;;;;4986544;28;20691;-87
2021/03/28 13:05:33;;;;;;;9.70;4.67;;;8.90;86.20;;;;;;5021669;28;20254;-87
2021/03/28 13:08:18;;;;;;;8.30;4.50;;;9.10;83.70;;;;;;5037621;28;20650;-87
2021/03/28 13:10:45;;;;;;;9.70;5.10;;;9.50;82.70;;;;;;5039774;28;20212;-86
2021/03/28 13:13:14;;;;;;;8.07;4.07;;;9.90;76.60;;;;;;5003471;28;20302;-87
2021/03/28 13:15:47;;;;;;;6.17;3.67;;;9.70;75.10;;;;;;5019832;28;20654;-86
2021/03/28 13:18:20;;;;;;;10.43;4.37;;;10.00;74.20;;;;;;5036774;28;20180;-90
2021/03/28 13:20:57;;;;;;;8.37;4.63;;;10.20;72.40;;;;;;5020475;28;20181;-89
2021/03/28 13:23:29;;;;;;;6.83;4.47;;;10.50;70.70;;;;;;5036150;28;20241;-87
2021/03/28 13:26:25;;;;;;;8.27;4.40;;;10.50;69.30;;;;;;5018356;28;20237;-86
2021/03/28 13:29:12;;;;;;;6.07;3.83;;;10.40;67.50;;;;;;5028435;28;20264;-89
2021/03/28 13:31:59;;;;;;;6.00;4.10;;;10.50;68.80;;;;;;5016259;28;20212;-88
2021/03/28 13:34:36;;;;;;;6.50;3.80;;;11.00;64.70;;;;;;5041567;28;20200;-87
2021/03/28 13:37:13;;;;;;;6.90;3.53;;;11.10;63.80;;;;;;5052669;28;20623;-88
2021/03/28 13:39:56;;;;;;;4.50;3.27;;;10.90;63.00;;;;;;5025969;28;20212;-87
2021/03/28 13:42:44;;;;;;;10.23;4.27;;;10.30;62.80;;;;;;5034965;28;20594;-90
2021/03/28 13:45:21;;;;;;;7.33;3.90;;;10.10;63.20;;;;;;5036330;28;20550;-87
2021/03/28 13:47:54;;;;;;;4.53;3.13;;;10.00;63.90;;;;;;5001111;28;20264;-87
2021/03/28 13:50:39;;;;;;;4.97;3.50;;;10.00;61.60;;;;;;5013484;28;20213;-87
2021/03/28 13:53:34;;;;;;;6.30;3.10;;;10.30;61.10;;;;;;5000137;28;20212;-86
2021/03/28 13:56:08;;;;;;;7.53;3.07;;;10.00;59.90;;;;;;5009449;28;20188;-86
2021/03/28 13:58:37;;;;;;;7.47;3.60;;;9.80;61.90;;;;;;5017892;28;20554;-86
2021/03/28 14:01:22;;;;;;;8.10;3.60;;;9.60;63.50;;;;;;5002284;28;20192;-86
2021/03/28 14:03:50;;;;;;;6.67;3.80;;;9.40;64.70;;;;;;4998840;28;20272;-89
2021/03/28 14:06:19;;;;;;;6.70;3.67;;;9.60;63.80;;;;;;4992599;28;20657;-88
2021/03/28 14:08:46;;;;;;;8.93;3.67;;;10.00;61.60;;;;;;5017395;28;20217;-88
2021/03/28 14:11:40;;;;;;;8.27;3.73;;;10.60;59.40;;;;;;4990793;28;20196;-87
2021/03/28 14:14:26;;;;;;;4.70;3.20;;;11.10;58.20;;;;;;4975170;28;20221;-88
2021/03/28 14:16:55;;;;;;;6.37;2.87;;;11.30;58.00;;;;;;5009660;28;20199;-87
2021/03/28 14:19:35;;;;;;;6.57;3.10;;;11.70;56.50;;;;;;5002145;28;20529;-85
2021/03/28 14:22:27;;;;;;;7.90;3.20;;;11.80;56.60;;;;;;5029040;28;20197;-86
2021/03/28 14:24:57;;;;;;;5.20;3.15;;;11.30;57.30;;;;;;5003883;28;20185;-88
2021/03/28 14:27:31;;;;;;;4.73;2.90;;;10.90;57.90;;;;;;5008139;28;20173;-88
2021/03/28 14:30:20;;;;;;;5.70;2.83;;;10.80;56.40;;;;;;5012153;28;20213;-87
2021/03/28 14:32:53;;;;;;;4.57;2.93;;;11.20;55.80;;;;;;5014895;28;20181;-87
2021/03/28 14:35:24;;;;;;;6.80;3.33;;;11.20;55.80;;;;;;5002495;28;20246;-88
2021/03/28 14:37:59;;;;;;;5.70;3.00;;;11.20;55.90;;;;;;5004140;28;20185;-86
2021/03/28 14:40:56;;;;;;;7.17;3.37;;;11.00;56.20;;;;;;5008018;28;20185;-89
2021/03/28 14:43:39;;;;;;;6.17;3.33;;;10.80;56.70;;;;;;5010430;28;20189;-90
2021/03/28 14:46:37;;;;;;;8.87;3.53;;;10.80;56.80;;;;;;5005491;28;20177;-89
2021/03/28 14:49:05;;;;;;;5.80;3.33;;;10.80;57.50;;;;;;4994524;28;20236;-90
2021/03/28 14:52:17;;;;;;;7.87;3.70;;;10.70;57.30;;;;;;5040244;28;20253;-89
2021/03/28 14:54:56;;;;;;;6.93;4.40;;;10.60;57.80;;;;;;5019936;28;20304;-89
2021/03/28 14:57:43;;;;;;;5.87;3.80;;;10.40;57.80;;;;;;5023879;28;20203;-88
2021/03/28 15:00:23;;;;;;;7.87;4.30;;;10.00;58.70;;;;;;5054424;28;20182;-87